createdAt,value
2022-09-04T00:05:04.291Z,2.40
2022-09-04T00:10:31.392Z,2.50
2022-09-04T00:15:53.675Z,2.50
2022-09-04T00:21:09.970Z,2.80
2022-09-04T00:26:43.292Z,2.60
2022-09-04T00:31:59.502Z,3.00
2022-09-04T00:37:07.322Z,2.40
2022-09-04T00:42:32.450Z,2.80
2022-09-04T00:47:39.654Z,2.50
2022-09-04T00:52:48.598Z,2.80
2022-09-04T00:58:33.590Z,2.50
2022-09-04T01:04:08.034Z,2.00
2022-09-04T01:09:32.544Z,2.50
2022-09-04T01:15:03.133Z,2.60
2022-09-04T01:20:24.130Z,2.30
2022-09-04T01:25:55.395Z,2.20
2022-09-04T01:31:36.866Z,2.30
2022-09-04T01:36:58.448Z,2.50
2022-09-04T01:42:14.968Z,2.70
2022-09-04T01:47:47.365Z,2.70
2022-09-04T01:53:05.525Z,2.20
2022-09-04T01:58:16.622Z,2.20
2022-09-04T02:03:39.584Z,2.10
2022-09-04T02:09:04.037Z,2.70
2022-09-04T02:14:19.503Z,2.20
2022-09-04T02:19:38.001Z,2.30
2022-09-04T02:25:19.076Z,2.50
2022-09-04T02:30:22.448Z,2.70
2022-09-04T02:35:31.125Z,2.10
2022-09-04T02:41:00.965Z,2.20
2022-09-04T02:46:47.049Z,2.30
2022-09-04T02:52:02.377Z,2.30
2022-09-04T02:57:50.645Z,2.30
2022-09-04T03:03:05.981Z,2.40
2022-09-04T03:08:58.515Z,2.00
2022-09-04T03:14:16.063Z,2.10
2022-09-04T03:19:28.385Z,2.10
2022-09-04T03:24:39.885Z,2.20
2022-09-04T03:29:55.797Z,2.00
2022-09-04T03:35:20.712Z,2.30
2022-09-04T03:40:28.838Z,2.20
2022-09-04T03:45:54.377Z,2.10
2022-09-04T03:50:58.813Z,1.90
2022-09-04T03:56:20.559Z,2.20
2022-09-04T04:01:45.071Z,2.00
2022-09-04T04:07:08.662Z,2.00
2022-09-04T04:12:49.843Z,1.80
2022-09-04T04:18:31.677Z,1.80
2022-09-04T04:23:48.712Z,2.00
2022-09-04T04:28:59.993Z,2.00
2022-09-04T04:34:11.725Z,1.80
2022-09-04T04:39:17.393Z,1.80
2022-09-04T04:44:51.019Z,1.80
2022-09-04T04:50:17.067Z,1.90
2022-09-04T04:55:59.296Z,1.90
2022-09-04T05:01:25.604Z,1.60
2022-09-04T05:06:38.920Z,1.90
2022-09-04T05:11:56.856Z,1.50
2022-09-04T05:17:09.938Z,1.40
2022-09-04T05:22:35.630Z,1.40
2022-09-04T05:27:58.716Z,1.10
2022-09-04T05:33:06.629Z,1.30
2022-09-04T05:38:32.776Z,1.40
2022-09-04T05:43:38.757Z,1.40
2022-09-04T05:48:53.124Z,1.30
2022-09-04T05:54:14.669Z,1.30
2022-09-04T05:59:46.962Z,1.40
2022-09-04T06:04:50.888Z,1.30
2022-09-04T06:10:15.603Z,1.30
2022-09-04T06:15:24.550Z,1.30
2022-09-04T06:20:52.342Z,1.30
2022-09-04T06:26:07.631Z,1.20
2022-09-04T06:31:13.597Z,1.10
2022-09-04T06:36:42.458Z,1.50
2022-09-04T06:42:15.940Z,1.20
2022-09-04T06:47:43.730Z,1.20
2022-09-04T06:52:56.257Z,1.10
2022-09-04T06:58:15.336Z,1.10
2022-09-04T07:03:53.777Z,0.90
2022-09-04T07:09:19.930Z,1.30
2022-09-04T07:15:08.511Z,1.00
2022-09-04T07:20:27.059Z,1.00
2022-09-04T07:25:29.989Z,1.20
2022-09-04T07:31:22.475Z,1.00
2022-09-04T07:36:31.641Z,1.00
2022-09-04T07:41:54.504Z,1.00
2022-09-04T07:47:14.779Z,1.00
2022-09-04T07:52:23.458Z,1.00
2022-09-04T07:57:42.200Z,0.90
2022-09-04T08:02:45.099Z,0.90
2022-09-04T08:08:10.753Z,1.00
2022-09-04T08:13:34.530Z,0.90
2022-09-04T08:19:08.772Z,1.00
2022-09-04T08:24:37.373Z,0.90
2022-09-04T08:30:09.184Z,0.80
2022-09-04T08:35:27.326Z,0.80
2022-09-04T08:40:52.290Z,0.90
2022-09-04T08:46:36.037Z,0.70
2022-09-04T08:51:57.847Z,1.10
2022-09-04T08:57:19.802Z,0.90
2022-09-04T09:02:44.888Z,0.90
2022-09-04T09:07:54.279Z,1.10
2022-09-04T09:13:15.972Z,1.00
2022-09-04T09:18:40.754Z,0.60
2022-09-04T09:24:01.808Z,1.00
2022-09-04T09:29:41.964Z,1.00
2022-09-04T09:35:02.051Z,0.80
2022-09-04T09:40:26.770Z,1.20
2022-09-04T09:45:57.501Z,0.80
2022-09-04T09:51:44.772Z,0.80
2022-09-04T09:56:53.790Z,0.70
2022-09-04T10:02:18.158Z,1.10
2022-09-04T10:07:40.185Z,0.80
2022-09-04T10:13:20.812Z,0.80
2022-09-04T10:18:36.264Z,0.70
2022-09-04T10:23:58.933Z,0.70
2022-09-04T10:29:20.677Z,0.60
2022-09-04T10:34:30.446Z,0.50
2022-09-04T10:40:11.871Z,0.70
2022-09-04T10:45:33.316Z,0.40
2022-09-04T10:50:59.036Z,0.60
2022-09-04T10:56:09.407Z,0.60
2022-09-04T11:01:35.363Z,0.70
2022-09-04T11:07:28.820Z,0.70
2022-09-04T11:12:51.071Z,0.90
2022-09-04T11:18:03.945Z,0.70
2022-09-04T11:23:23.533Z,0.60
2022-09-04T11:34:21.257Z,0.50
2022-09-04T11:39:39.148Z,0.80
2022-09-04T11:45:00.772Z,0.80
2022-09-04T11:50:22.197Z,0.80
2022-09-04T11:55:54.590Z,0.90
2022-09-04T12:01:19.102Z,0.60
2022-09-04T12:06:39.019Z,0.60
2022-09-04T12:12:01.262Z,0.80
2022-09-04T12:17:29.084Z,0.70
2022-09-04T12:23:09.537Z,0.90
2022-09-04T12:28:16.022Z,1.00
2022-09-04T12:33:49.850Z,0.80
2022-09-04T12:39:11.189Z,0.80
2022-09-04T12:44:34.904Z,0.70
2022-09-04T12:50:01.548Z,0.60
2022-09-04T12:55:33.534Z,0.70
2022-09-04T13:00:52.905Z,0.80
2022-09-04T13:06:31.565Z,0.90
2022-09-04T13:11:43.682Z,0.70
2022-09-04T13:17:01.949Z,0.50
2022-09-04T13:22:39.671Z,1.00
2022-09-04T13:28:16.911Z,0.80
2022-09-04T13:33:42.408Z,0.90
2022-09-04T13:39:06.734Z,0.70
2022-09-04T13:44:28.153Z,1.00
2022-09-04T13:49:48.173Z,1.00
2022-09-04T14:00:08.029Z,1.10
2022-09-04T14:05:22.165Z,0.90
2022-09-04T14:11:01.729Z,1.00
2022-09-04T14:16:11.886Z,1.00
2022-09-04T14:21:43.512Z,0.80
2022-09-04T14:27:04.573Z,0.80
2022-09-04T14:32:28.461Z,0.60
2022-09-04T14:37:42.880Z,0.80
2022-09-04T14:43:00.324Z,0.70
2022-09-04T14:48:07.496Z,0.90
2022-09-04T14:53:11.098Z,1.10
2022-09-04T14:58:30.233Z,0.90
2022-09-04T15:03:49.277Z,0.80
2022-09-04T15:08:53.932Z,0.90
2022-09-04T15:14:33.102Z,1.00
2022-09-04T15:19:41.074Z,0.70
2022-09-04T15:24:44.048Z,0.80
2022-09-04T15:30:18.794Z,0.70
2022-09-04T15:35:28.389Z,1.10
2022-09-04T15:40:59.620Z,0.90
2022-09-04T15:46:21.038Z,0.90
2022-09-04T15:51:41.638Z,1.00
2022-09-04T15:56:54.108Z,0.70
2022-09-04T16:02:11.931Z,0.70
2022-09-04T16:07:33.099Z,0.90
2022-09-04T16:12:53.305Z,0.90
2022-09-04T16:17:59.855Z,0.70
2022-09-04T16:23:08.584Z,0.80
2022-09-04T16:28:20.324Z,0.90
2022-09-04T16:33:38.243Z,0.70
2022-09-04T16:38:50.563Z,1.10
2022-09-04T16:44:07.462Z,1.10
2022-09-04T16:49:22.076Z,0.90
2022-09-04T16:54:49.253Z,0.90
2022-09-04T17:00:22.646Z,1.00
2022-09-04T17:05:39.411Z,1.10
2022-09-04T17:11:04.382Z,0.80
2022-09-04T17:16:19.866Z,0.90
2022-09-04T17:27:32.393Z,0.90
2022-09-04T17:29:09.737Z,1.00
2022-09-04T17:40:32.454Z,1.00
2022-09-04T17:40:46.823Z,1.20
2022-09-04T17:44:25.499Z,1.30
2022-09-04T17:49:34.708Z,3.20
2022-09-04T17:54:48.896Z,2.70
2022-09-04T17:59:57.165Z,2.60
2022-09-04T18:05:15.023Z,2.60
2022-09-04T18:10:36.030Z,2.40
2022-09-04T18:16:17.018Z,2.50
2022-09-04T18:21:29.235Z,2.10
2022-09-04T18:26:45.900Z,1.80
2022-09-04T18:37:06.420Z,2.80
2022-09-04T18:37:47.441Z,2.90
2022-09-04T18:46:41.266Z,2.30
2022-09-04T18:51:06.965Z,2.90
2022-09-04T18:54:20.508Z,3.40
2022-09-04T18:59:29.955Z,3.00
2022-09-04T19:04:41.685Z,3.60
2022-09-04T19:10:06.405Z,3.60
2022-09-04T19:15:36.298Z,3.30
2022-09-04T19:20:48.347Z,2.70
2022-09-04T19:25:55.210Z,3.00
2022-09-04T19:31:06.082Z,2.90
2022-09-04T19:36:37.931Z,2.50
2022-09-04T19:46:02.354Z,2.20
2022-09-04T19:47:27.242Z,2.60
2022-09-04T19:53:30.150Z,2.70
2022-09-04T19:58:09.644Z,3.10
2022-09-04T20:03:29.482Z,2.80
2022-09-04T20:08:42.445Z,2.20
2022-09-04T20:13:49.958Z,2.30
2022-09-04T20:19:12.057Z,2.50
2022-09-04T20:24:32.670Z,2.80
2022-09-04T20:29:54.751Z,3.00
2022-09-04T20:35:33.290Z,3.00
2022-09-04T20:40:59.508Z,3.10
2022-09-04T20:47:44.508Z,3.20
2022-09-04T20:52:52.787Z,2.40
2022-09-04T20:59:26.791Z,2.50
2022-09-04T21:03:28.042Z,2.50
2022-09-04T21:13:51.737Z,2.00
2022-09-04T21:19:27.644Z,2.60
2022-09-04T21:24:54.371Z,2.20
2022-09-04T21:30:17.163Z,2.10
2022-09-04T21:35:32.333Z,2.20
2022-09-04T21:40:49.966Z,2.60
2022-09-04T21:46:18.517Z,2.10
2022-09-04T21:51:28.652Z,2.10
2022-09-04T22:02:29.946Z,1.90
2022-09-04T22:02:59.442Z,2.10
2022-09-04T22:13:32.066Z,2.00
2022-09-04T22:13:49.308Z,2.00
2022-09-04T22:19:01.952Z,2.10
2022-09-04T22:24:41.281Z,2.10
2022-09-04T22:29:58.448Z,1.90
2022-09-04T22:35:35.914Z,2.10
2022-09-04T22:40:56.203Z,2.10
2022-09-04T22:51:25.319Z,2.10
2022-09-04T22:56:28.320Z,2.20
2022-09-04T23:01:31.735Z,2.10
2022-09-04T23:10:43.497Z,2.20
2022-09-04T23:14:02.223Z,2.00
2022-09-04T23:21:23.603Z,2.50
2022-09-04T23:26:46.605Z,2.10
2022-09-04T23:29:44.485Z,2.10
2022-09-04T23:34:54.666Z,2.30
2022-09-04T23:40:38.007Z,2.20
2022-09-04T23:46:08.293Z,2.20
2022-09-04T23:51:56.267Z,2.10
2022-09-04T23:57:26.195Z,2.10
